Lake Panamoka, New York
Current Conditions -  °F | °C
As of 2:56 PM on Thursday 30 Oct 2014 (Local Time) from KHWV Reporting Station
Overcast Overcast  
Wind Chill: 58°   Ceiling: 7000
Heat Index: 58°   Visibility: 10mi
Dew Point: 40°   Wind: 7mph
Humidity: 51%   Direction: 290°WNW
Pressure: 29.96"   Gusts: NA
Location:  40.8942°N, 72.8763°W
Report Text: KHWV 301856Z AUTO 29006KT 10SM OVC070 14/04 A2996 RMK AO2 SLP143 T01440044 TSNO
Loading
Personal Weather Stations






























Interactive Weather Map New forecast layout! Learn more

10-Day Weather Forecast

Advertisements
Track Severe Weather on mobile